Time;durP1;ratioP1;P1;durP2;ratioP2;P2;SDS_P1;SDS_P2;PMS_P1;PMS_P2;Temp;Humidity;BMP_temperature;BMP_pressure;BME280_temperature;BME280_humidity;BME280_pressure;Samples;Min_cycle;Max_cycle;Signal;HPM_P1;HPM_P2
2021/10/08 00:00:29;;;;;;;10.80;8.02;;;9.40;99.90;;;;;;5075447;28;20196;-65
2021/10/08 00:02:55;;;;;;;8.52;7.75;;;9.40;99.90;;;;;;5075171;28;20223;-66
2021/10/08 00:05:22;;;;;;;9.75;7.00;;;9.40;99.90;;;;;;5075443;28;20208;-66
2021/10/08 00:07:48;;;;;;;9.30;8.30;;;9.40;99.90;;;;;;5075401;28;20568;-67
2021/10/08 00:10:14;;;;;;;9.80;7.82;;;9.40;99.90;;;;;;5075231;28;20188;-65
2021/10/08 00:12:41;;;;;;;8.35;7.57;;;9.40;99.90;;;;;;5075342;28;20266;-65
2021/10/08 00:15:07;;;;;;;8.70;7.35;;;9.30;99.90;;;;;;5074936;28;20262;-65
2021/10/08 00:17:34;;;;;;;10.55;8.18;;;9.30;99.90;;;;;;5075027;28;20232;-66
2021/10/08 00:20:00;;;;;;;8.68;7.78;;;9.30;99.90;;;;;;5074769;28;20199;-65
2021/10/08 00:22:27;;;;;;;10.88;8.63;;;9.20;99.90;;;;;;5074480;28;20759;-66
2021/10/08 00:24:53;;;;;;;12.70;8.25;;;9.30;99.90;;;;;;5075212;28;20614;-66
2021/10/08 00:27:19;;;;;;;10.38;8.75;;;9.30;99.90;;;;;;5074595;28;20192;-66
2021/10/08 00:29:47;;;;;;;10.13;9.13;;;9.30;99.90;;;;;;5074671;28;20196;-66
2021/10/08 00:32:15;;;;;;;10.90;8.40;;;9.30;99.90;;;;;;5075252;28;20234;-66
2021/10/08 00:34:41;;;;;;;10.75;8.63;;;9.30;99.90;;;;;;5075080;28;20199;-66
2021/10/08 00:37:08;;;;;;;11.20;8.73;;;9.30;99.90;;;;;;5075341;28;20196;-66
2021/10/08 00:39:36;;;;;;;11.35;8.85;;;9.30;99.90;;;;;;5074139;28;20196;-66
2021/10/08 00:42:05;;;;;;;9.50;8.50;;;9.30;99.90;;;;;;5075483;28;20553;-66
2021/10/08 00:44:31;;;;;;;14.63;8.77;;;9.30;99.90;;;;;;5075173;28;20211;-66
2021/10/08 00:46:58;;;;;;;12.05;9.32;;;9.20;99.90;;;;;;5074926;28;20542;-66
2021/10/08 00:49:25;;;;;;;11.65;9.00;;;9.20;99.90;;;;;;5075099;28;20223;-67
2021/10/08 00:51:51;;;;;;;12.73;8.45;;;9.20;99.90;;;;;;5074692;28;20210;-67
2021/10/08 00:54:17;;;;;;;8.27;7.53;;;9.10;99.90;;;;;;5074060;28;20200;-65
2021/10/08 00:56:44;;;;;;;13.35;9.32;;;9.10;99.90;;;;;;5074494;28;20554;-65
2021/10/08 00:59:11;;;;;;;9.80;8.70;;;9.00;99.90;;;;;;5074288;28;20192;-66
2021/10/08 01:01:37;;;;;;;9.95;8.95;;;9.00;99.90;;;;;;5074253;28;20196;-66
2021/10/08 01:04:06;;;;;;;9.13;8.25;;;9.00;99.90;;;;;;5073408;28;20238;-66
2021/10/08 01:06:32;;;;;;;11.85;9.05;;;8.90;99.90;;;;;;5073901;28;20205;-66
2021/10/08 01:08:58;;;;;;;12.60;9.23;;;8.90;99.90;;;;;;5074267;28;20196;-66
2021/10/08 01:11:24;;;;;;;11.15;8.82;;;8.90;99.90;;;;;;5074242;28;20196;-66
2021/10/08 01:13:51;;;;;;;9.93;8.93;;;9.00;99.90;;;;;;5073956;28;20652;-66
2021/10/08 01:16:24;;;;;;;11.25;9.50;;;9.00;99.90;;;;;;5074337;28;20204;-66
2021/10/08 01:18:51;;;;;;;10.20;9.20;;;9.00;99.90;;;;;;5073956;28;20761;-66
2021/10/08 01:21:17;;;;;;;11.60;9.55;;;8.90;99.90;;;;;;5074011;28;20203;-66
2021/10/08 01:23:46;;;;;;;12.40;10.13;;;8.90;99.90;;;;;;5074198;28;20216;-66
2021/10/08 01:26:13;;;;;;;18.48;10.93;;;8.90;99.90;;;;;;5073769;28;20192;-66
2021/10/08 01:28:39;;;;;;;15.90;10.30;;;8.90;99.90;;;;;;5073801;28;20192;-66
2021/10/08 01:31:06;;;;;;;11.90;9.40;;;8.90;99.90;;;;;;5073803;28;20192;-66
2021/10/08 01:33:33;;;;;;;9.95;8.95;;;8.80;99.90;;;;;;5073419;28;20200;-66
2021/10/08 01:36:00;;;;;;;11.77;9.68;;;8.80;99.90;;;;;;5074169;28;20199;-66
2021/10/08 01:38:26;;;;;;;13.50;10.70;;;8.80;99.90;;;;;;5073865;28;20208;-66
2021/10/08 01:40:54;;;;;;;12.35;9.93;;;8.70;99.90;;;;;;5072084;28;20678;-67
2021/10/08 01:43:20;;;;;;;11.15;9.90;;;8.70;99.90;;;;;;5073284;28;20288;-66
2021/10/08 01:45:46;;;;;;;10.85;9.45;;;8.70;99.90;;;;;;5073837;28;20233;-66
2021/10/08 01:48:13;;;;;;;12.10;10.73;;;8.70;99.90;;;;;;5073311;28;20224;-66
2021/10/08 01:50:39;;;;;;;15.30;10.23;;;8.70;99.90;;;;;;5073741;28;20198;-66
2021/10/08 01:53:10;;;;;;;10.77;9.55;;;8.60;99.90;;;;;;5073368;28;20286;-66
2021/10/08 01:55:37;;;;;;;11.45;10.35;;;8.70;99.90;;;;;;5073747;28;20663;-66
2021/10/08 01:58:03;;;;;;;11.57;10.38;;;8.70;99.90;;;;;;5073718;28;20203;-66
2021/10/08 02:00:30;;;;;;;15.70;9.32;;;8.70;99.90;;;;;;5073763;28;20227;-66
2021/10/08 02:02:56;;;;;;;10.68;9.57;;;8.70;99.90;;;;;;5073431;28;20227;-66
2021/10/08 02:05:22;;;;;;;12.30;9.40;;;8.70;99.90;;;;;;5073712;28;20639;-66
2021/10/08 02:07:49;;;;;;;12.55;10.70;;;8.70;99.90;;;;;;5073592;28;20191;-66
2021/10/08 02:10:15;;;;;;;10.63;9.57;;;8.80;99.90;;;;;;5073390;28;20200;-66
2021/10/08 02:12:43;;;;;;;12.00;10.70;;;8.70;99.90;;;;;;5073316;28;20208;-66
2021/10/08 02:15:10;;;;;;;13.75;10.90;;;8.70;99.90;;;;;;5073592;28;20192;-67
2021/10/08 02:17:39;;;;;;;13.02;9.88;;;8.80;99.90;;;;;;5073235;28;20223;-65
2021/10/08 02:20:06;;;;;;;14.55;10.82;;;8.80;99.90;;;;;;5073122;28;20229;-66
2021/10/08 02:22:32;;;;;;;15.30;11.25;;;8.90;99.90;;;;;;5073158;28;20196;-65
2021/10/08 02:24:59;;;;;;;14.23;10.52;;;8.90;99.90;;;;;;5073674;28;20204;-65
2021/10/08 02:27:25;;;;;;;12.57;10.48;;;8.90;99.90;;;;;;5055775;28;20211;-65
2021/10/08 02:29:51;;;;;;;15.07;10.63;;;8.90;99.90;;;;;;5073262;28;20179;-65
2021/10/08 02:32:17;;;;;;;13.63;11.43;;;8.90;99.90;;;;;;5073260;28;20295;-65
2021/10/08 02:34:43;;;;;;;11.20;9.70;;;8.90;99.90;;;;;;5073237;28;20204;-65
2021/10/08 02:37:10;;;;;;;20.23;11.85;;;8.90;99.90;;;;;;5073180;28;20546;-65
2021/10/08 02:39:36;;;;;;;18.10;11.02;;;8.90;99.90;;;;;;5073281;28;20211;-65
2021/10/08 02:42:04;;;;;;;15.10;11.02;;;8.90;99.90;;;;;;5073327;28;20612;-65
2021/10/08 02:44:31;;;;;;;14.32;11.43;;;8.90;99.90;;;;;;5074983;28;20219;-65
2021/10/08 02:46:57;;;;;;;21.38;11.25;;;8.80;99.90;;;;;;5076783;28;20208;-65
2021/10/08 02:49:23;;;;;;;12.32;10.40;;;8.90;99.90;;;;;;5076484;28;20203;-65
2021/10/08 02:51:51;;;;;;;12.98;10.75;;;8.80;99.90;;;;;;5076498;28;20223;-65
2021/10/08 02:54:17;;;;;;;12.32;11.02;;;8.90;99.90;;;;;;5076504;28;20269;-65
2021/10/08 02:56:44;;;;;;;14.73;11.23;;;8.90;99.90;;;;;;5076400;28;20196;-65
2021/10/08 02:59:10;;;;;;;12.05;10.75;;;8.90;99.90;;;;;;5076815;28;20188;-65
2021/10/08 03:01:36;;;;;;;16.33;10.95;;;8.90;99.90;;;;;;5076015;28;20709;-65
2021/10/08 03:04:04;;;;;;;13.00;10.75;;;8.90;99.90;;;;;;5076216;28;20231;-65
2021/10/08 03:06:31;;;;;;;11.38;10.07;;;8.90;99.90;;;;;;5075836;28;20665;-65
2021/10/08 03:08:57;;;;;;;17.17;12.05;;;8.90;99.90;;;;;;5074942;28;20564;-65
2021/10/08 03:11:25;;;;;;;16.02;11.43;;;8.90;99.90;;;;;;5076408;28;20656;-65
2021/10/08 03:13:51;;;;;;;13.43;10.75;;;8.90;99.90;;;;;;5061650;28;20613;-65
2021/10/08 03:16:17;;;;;;;14.00;10.23;;;8.90;99.90;;;;;;5076274;28;20648;-65
2021/10/08 03:18:43;;;;;;;16.83;11.70;;;8.90;99.90;;;;;;5075865;28;20634;-65
2021/10/08 03:21:10;;;;;;;13.85;11.18;;;8.80;99.90;;;;;;5076454;28;20207;-66
2021/10/08 03:23:37;;;;;;;13.93;11.65;;;8.80;99.90;;;;;;5075895;28;20239;-65
2021/10/08 03:26:03;;;;;;;14.82;12.15;;;8.80;99.90;;;;;;5075853;28;20192;-67
2021/10/08 03:28:30;;;;;;;15.85;11.30;;;8.80;99.90;;;;;;5076139;28;20550;-65
2021/10/08 03:30:56;;;;;;;15.38;12.77;;;8.70;99.90;;;;;;5075874;28;20208;-65
2021/10/08 03:33:23;;;;;;;18.00;11.93;;;8.70;99.90;;;;;;5076379;28;20204;-65
2021/10/08 03:35:49;;;;;;;15.98;12.95;;;8.70;99.90;;;;;;5075930;28;20203;-68
2021/10/08 03:38:18;;;;;;;13.90;12.15;;;8.70;99.90;;;;;;5075838;28;20201;-65
2021/10/08 03:41:00;;;;;;;15.95;12.48;;;8.70;99.90;;;;;;5076026;28;20274;-65
2021/10/08 03:43:27;;;;;;;14.30;11.90;;;8.70;99.90;;;;;;5075826;28;20228;-66
2021/10/08 03:45:54;;;;;;;18.13;11.85;;;8.70;99.90;;;;;;5076432;28;20200;-66
2021/10/08 03:50:49;;;;;;;13.30;11.07;;;8.70;99.90;;;;;;5075766;28;20215;-65
2021/10/08 03:53:16;;;;;;;13.25;11.70;;;8.70;99.90;;;;;;5075964;28;20199;-66
2021/10/08 03:55:42;;;;;;;16.25;10.70;;;8.70;99.90;;;;;;5074525;28;20200;-66
2021/10/08 03:58:09;;;;;;;16.35;11.32;;;8.70;99.90;;;;;;5075641;28;20191;-66
2021/10/08 04:00:35;;;;;;;12.77;10.48;;;8.70;99.90;;;;;;5075504;28;20196;-66
2021/10/08 04:03:01;;;;;;;11.82;10.30;;;8.70;99.90;;;;;;5075229;28;20207;-66
2021/10/08 04:05:28;;;;;;;16.60;11.73;;;8.70;99.90;;;;;;5075242;28;20196;-66
2021/10/08 04:07:54;;;;;;;21.00;9.98;;;8.70;99.90;;;;;;5075868;28;20188;-66
2021/10/08 04:10:20;;;;;;;12.90;11.43;;;8.70;99.90;;;;;;5075057;28;20187;-66
2021/10/08 04:12:47;;;;;;;15.07;11.02;;;8.70;99.90;;;;;;5075176;28;20607;-66
2021/10/08 04:15:13;;;;;;;11.27;10.10;;;8.70;99.90;;;;;;5075098;28;20200;-66
2021/10/08 04:17:39;;;;;;;12.48;10.93;;;8.70;99.90;;;;;;5075161;28;20246;-66
2021/10/08 04:20:06;;;;;;;14.60;10.93;;;8.70;99.90;;;;;;5075191;28;20196;-65
2021/10/08 04:22:32;;;;;;;14.25;11.45;;;8.60;99.90;;;;;;5074962;28;20242;-66
2021/10/08 04:24:59;;;;;;;15.93;11.90;;;8.60;99.90;;;;;;5075012;28;20687;-66
2021/10/08 04:27:25;;;;;;;11.77;10.55;;;8.60;99.90;;;;;;5075142;28;20196;-66
2021/10/08 04:29:51;;;;;;;13.30;10.73;;;8.60;99.90;;;;;;5073584;28;20257;-66
2021/10/08 04:32:18;;;;;;;12.70;10.90;;;8.60;99.90;;;;;;5073780;28;20204;-66
2021/10/08 04:34:44;;;;;;;11.18;9.93;;;8.60;99.90;;;;;;5074904;28;20196;-66
2021/10/08 04:37:10;;;;;;;13.25;10.15;;;8.60;99.90;;;;;;5074763;28;20204;-66
2021/10/08 04:39:37;;;;;;;12.55;9.80;;;8.60;99.90;;;;;;5074343;28;20671;-66
2021/10/08 04:42:03;;;;;;;11.55;10.23;;;8.60;99.90;;;;;;5074908;28;20207;-66
2021/10/08 04:44:32;;;;;;;15.80;10.10;;;8.60;99.90;;;;;;5074327;28;20663;-66
2021/10/08 04:47:00;;;;;;;18.88;10.63;;;8.60;99.90;;;;;;5074237;28;20208;-66
2021/10/08 04:49:26;;;;;;;12.88;10.27;;;8.60;99.90;;;;;;5074381;28;20210;-65
2021/10/08 04:51:53;;;;;;;17.52;11.57;;;8.60;99.90;;;;;;5074580;28;20310;-66
2021/10/08 04:54:19;;;;;;;13.77;10.10;;;8.60;99.90;;;;;;5074414;28;20528;-66
2021/10/08 04:56:46;;;;;;;15.05;11.05;;;8.60;99.90;;;;;;5074364;28;20207;-66
2021/10/08 04:59:13;;;;;;;15.65;11.52;;;8.60;99.90;;;;;;5074806;28;20200;-65
2021/10/08 05:01:39;;;;;;;12.20;10.90;;;8.50;99.90;;;;;;5074402;28;20204;-66
2021/10/08 05:04:05;;;;;;;10.40;9.10;;;8.50;99.90;;;;;;5074442;28;20706;-66
2021/10/08 05:06:32;;;;;;;11.57;9.00;;;8.60;99.90;;;;;;5073635;28;20187;-66
2021/10/08 05:08:58;;;;;;;18.95;10.80;;;8.50;99.90;;;;;;5074070;28;20202;-66
2021/10/08 05:11:24;;;;;;;12.60;10.13;;;8.50;99.90;;;;;;5073862;28;20203;-66
2021/10/08 05:13:50;;;;;;;11.18;9.98;;;8.50;99.90;;;;;;5073779;28;20202;-66
2021/10/08 05:16:17;;;;;;;11.00;9.85;;;8.50;99.90;;;;;;5073780;28;20195;-67
2021/10/08 05:18:43;;;;;;;11.73;10.05;;;8.50;99.90;;;;;;5073950;28;20236;-66
2021/10/08 05:21:09;;;;;;;14.10;11.05;;;8.50;99.90;;;;;;5073876;28;20219;-66
2021/10/08 05:23:38;;;;;;;12.82;10.70;;;8.50;99.90;;;;;;5073565;28;20212;-66
2021/10/08 05:26:05;;;;;;;15.70;10.75;;;8.50;99.90;;;;;;5074196;28;20208;-66
2021/10/08 05:28:31;;;;;;;12.07;10.00;;;8.50;99.90;;;;;;5073668;28;20202;-66
2021/10/08 05:30:58;;;;;;;17.55;11.00;;;8.50;99.90;;;;;;5074051;28;20204;-66
2021/10/08 05:33:24;;;;;;;12.95;10.18;;;8.60;99.90;;;;;;5073946;28;20207;-66
2021/10/08 05:35:50;;;;;;;14.38;10.20;;;8.60;99.90;;;;;;5073742;28;20324;-67
2021/10/08 05:38:17;;;;;;;12.05;10.05;;;8.60;99.90;;;;;;5073523;28;20565;-67
2021/10/08 05:40:44;;;;;;;13.60;11.50;;;8.50;99.90;;;;;;5073939;28;20214;-67
2021/10/08 05:43:15;;;;;;;12.93;11.52;;;8.50;99.90;;;;;;5072602;28;20596;-66
2021/10/08 05:45:42;;;;;;;17.73;11.10;;;8.60;99.90;;;;;;5073438;28;20200;-66
2021/10/08 05:48:08;;;;;;;13.10;9.77;;;8.60;99.90;;;;;;5073571;28;20223;-66
2021/10/08 05:50:36;;;;;;;18.70;9.90;;;8.60;99.90;;;;;;5072896;28;20196;-71
2021/10/08 05:53:05;;;;;;;11.48;9.70;;;8.70;99.90;;;;;;5073233;28;20211;-67
2021/10/08 05:55:32;;;;;;;12.52;9.23;;;8.70;99.90;;;;;;5073368;28;20195;-67
2021/10/08 05:57:58;;;;;;;18.35;11.52;;;8.70;99.90;;;;;;5073391;28;20192;-66
2021/10/08 06:00:24;;;;;;;14.70;12.05;;;8.70;99.90;;;;;;5073574;28;20203;-67
2021/10/08 06:02:51;;;;;;;11.98;10.60;;;8.70;99.90;;;;;;5073418;28;20539;-66
2021/10/08 06:05:17;;;;;;;10.70;9.50;;;8.70;99.90;;;;;;5073462;28;20224;-66
2021/10/08 06:07:46;;;;;;;12.60;10.55;;;8.70;99.90;;;;;;5073181;28;20207;-66
2021/10/08 06:10:12;;;;;;;11.00;9.82;;;8.70;99.90;;;;;;5073548;28;20184;-66
2021/10/08 06:12:39;;;;;;;17.85;13.23;;;8.70;99.90;;;;;;5072100;28;20230;-66
2021/10/08 06:15:06;;;;;;;17.88;11.43;;;8.70;99.90;;;;;;5073321;28;20191;-67
2021/10/08 06:17:32;;;;;;;16.95;11.10;;;8.70;99.90;;;;;;5073538;28;20246;-66
2021/10/08 06:19:58;;;;;;;12.93;11.13;;;8.80;99.90;;;;;;5076065;28;20282;-66
2021/10/08 06:22:25;;;;;;;12.95;10.77;;;8.80;99.90;;;;;;5077453;28;20192;-66
2021/10/08 06:24:51;;;;;;;16.48;10.88;;;8.80;99.90;;;;;;5077239;28;20709;-67
2021/10/08 06:27:17;;;;;;;15.57;11.57;;;8.80;99.90;;;;;;5077062;28;20192;-67
2021/10/08 06:29:45;;;;;;;11.57;10.32;;;8.90;99.90;;;;;;5076944;28;20204;-67
2021/10/08 06:32:14;;;;;;;35.58;12.55;;;8.90;99.90;;;;;;5077157;28;20196;-66
2021/10/08 06:34:41;;;;;;;15.27;10.60;;;9.00;99.90;;;;;;5076975;28;20723;-67
2021/10/08 06:37:08;;;;;;;11.05;9.82;;;9.00;99.90;;;;;;5077076;28;20622;-67
2021/10/08 06:39:36;;;;;;;12.05;10.35;;;9.10;99.90;;;;;;5076948;28;20188;-67
2021/10/08 06:42:02;;;;;;;23.10;12.73;;;9.10;99.90;;;;;;5077201;28;20552;-67
2021/10/08 06:44:28;;;;;;;12.45;9.70;;;9.20;99.90;;;;;;5077094;28;20227;-68
2021/10/08 06:46:55;;;;;;;15.93;11.13;;;9.20;99.90;;;;;;5076881;28;20200;-67
2021/10/08 06:49:21;;;;;;;13.50;11.45;;;9.30;99.90;;;;;;5077086;28;20204;-68
2021/10/08 06:51:48;;;;;;;17.20;12.98;;;9.40;99.90;;;;;;5076627;28;20196;-67
2021/10/08 06:54:14;;;;;;;40.10;10.75;;;9.50;99.90;;;;;;5077039;28;20207;-67
2021/10/08 06:56:41;;;;;;;16.27;10.13;;;9.50;99.90;;;;;;5077042;28;20219;-67
2021/10/08 06:59:07;;;;;;;11.15;10.13;;;9.60;99.90;;;;;;5076780;28;20220;-67
2021/10/08 07:01:33;;;;;;;9.38;8.40;;;9.70;99.90;;;;;;5076243;28;20195;-67
2021/10/08 07:04:00;;;;;;;17.67;13.48;;;9.70;99.90;;;;;;5076460;28;20211;-67
2021/10/08 07:06:26;;;;;;;9.32;8.45;;;9.80;99.90;;;;;;5076740;28;20192;-67
2021/10/08 07:08:52;;;;;;;16.20;9.30;;;9.80;99.90;;;;;;5076288;28;20207;-67
2021/10/08 07:11:19;;;;;;;12.93;9.10;;;9.90;99.90;;;;;;5076485;28;20215;-67
2021/10/08 07:13:45;;;;;;;13.90;10.40;;;10.00;99.90;;;;;;5076019;28;20203;-67
2021/10/08 07:16:11;;;;;;;9.88;8.60;;;10.10;99.90;;;;;;5076473;28;20206;-67
2021/10/08 07:18:38;;;;;;;10.45;9.35;;;10.20;99.90;;;;;;5075962;28;20701;-67
2021/10/08 07:21:06;;;;;;;10.57;9.45;;;10.30;99.90;;;;;;5074629;28;20211;-67
2021/10/08 07:23:34;;;;;;;15.13;9.18;;;10.40;99.90;;;;;;5075693;28;20210;-67
2021/10/08 07:26:00;;;;;;;8.63;7.57;;;10.40;99.90;;;;;;5076726;28;20287;-67
2021/10/08 07:28:27;;;;;;;14.38;8.73;;;10.50;99.90;;;;;;5076366;28;20200;-67
2021/10/08 07:30:54;;;;;;;13.30;8.50;;;10.60;99.90;;;;;;5075729;28;20196;-67
2021/10/08 07:33:20;;;;;;;11.02;8.40;;;10.60;99.90;;;;;;5076305;28;20534;-67
2021/10/08 07:35:47;;;;;;;9.50;8.60;;;10.70;99.90;;;;;;5075785;28;20204;-67
2021/10/08 07:38:14;;;;;;;8.65;7.30;;;10.80;99.90;;;;;;5075762;28;20198;-67
2021/10/08 07:40:40;;;;;;;12.52;7.97;;;10.90;99.90;;;;;;5076234;28;20208;-67
2021/10/08 07:43:07;;;;;;;9.35;8.35;;;11.00;99.90;;;;;;5076043;28;20257;-67
2021/10/08 07:45:33;;;;;;;13.52;9.48;;;11.10;99.90;;;;;;5076246;28;20695;-67
2021/10/08 07:48:02;;;;;;;9.50;7.88;;;11.10;99.90;;;;;;5074711;28;20285;-67
2021/10/08 07:50:28;;;;;;;11.40;8.35;;;11.20;99.90;;;;;;5075477;28;20546;-67
2021/10/08 07:52:55;;;;;;;13.68;9.35;;;11.30;99.90;;;;;;5075412;28;20196;-66
2021/10/08 07:55:21;;;;;;;9.52;8.63;;;11.30;99.90;;;;;;5075770;28;20216;-66
2021/10/08 07:57:47;;;;;;;11.25;8.75;;;11.40;99.90;;;;;;5075487;28;20195;-66
2021/10/08 08:00:14;;;;;;;9.10;8.15;;;11.50;99.90;;;;;;5075627;28;20196;-66
2021/10/08 08:02:41;;;;;;;13.75;7.65;;;11.60;99.90;;;;;;5074277;28;20196;-67
2021/10/08 08:05:09;;;;;;;10.40;8.80;;;11.60;99.90;;;;;;5074709;28;20223;-67
2021/10/08 08:07:35;;;;;;;11.85;7.88;;;11.60;99.90;;;;;;5075370;28;20200;-67
2021/10/08 08:10:03;;;;;;;9.43;8.40;;;11.70;99.90;;;;;;5075400;28;20192;-67
2021/10/08 08:12:29;;;;;;;7.30;6.47;;;11.80;99.90;;;;;;5074809;28;20188;-66
2021/10/08 08:14:56;;;;;;;13.48;7.03;;;11.90;99.90;;;;;;5075287;28;20200;-67
2021/10/08 08:17:22;;;;;;;7.55;6.88;;;11.90;99.90;;;;;;5075249;28;20583;-67
2021/10/08 08:19:48;;;;;;;8.68;7.78;;;12.00;99.90;;;;;;5075008;28;20188;-67
2021/10/08 08:22:15;;;;;;;7.20;6.50;;;12.00;99.90;;;;;;5075001;28;20636;-67
2021/10/08 08:24:41;;;;;;;8.75;7.35;;;12.20;99.90;;;;;;5075084;28;20223;-67
2021/10/08 08:27:08;;;;;;;7.70;6.85;;;12.30;99.90;;;;;;5075032;28;20203;-68
2021/10/08 08:29:34;;;;;;;7.60;6.93;;;12.50;99.90;;;;;;5074935;28;20185;-67
2021/10/08 08:32:00;;;;;;;11.73;8.38;;;12.50;99.90;;;;;;5074764;28;20202;-67
2021/10/08 08:34:27;;;;;;;9.10;7.65;;;12.40;99.90;;;;;;5074666;28;20678;-67
2021/10/08 08:36:54;;;;;;;7.40;6.70;;;12.60;99.90;;;;;;5074905;28;20656;-67
2021/10/08 08:39:21;;;;;;;7.45;6.75;;;12.70;99.90;;;;;;5074732;28;20256;-67
2021/10/08 08:41:49;;;;;;;7.57;6.75;;;12.90;99.90;;;;;;5074213;28;20207;-67
2021/10/08 08:44:16;;;;;;;9.07;7.23;;;13.00;99.90;;;;;;5074349;28;20662;-67
2021/10/08 08:46:42;;;;;;;6.40;5.80;;;13.00;99.90;;;;;;5074616;28;20625;-67
2021/10/08 08:49:09;;;;;;;8.03;7.23;;;13.10;99.90;;;;;;5074418;28;20606;-67
2021/10/08 08:51:35;;;;;;;8.97;7.20;;;13.20;99.90;;;;;;5074462;28;20680;-67
2021/10/08 08:54:03;;;;;;;7.57;6.90;;;13.30;99.90;;;;;;5074357;28;20967;-67
2021/10/08 08:56:29;;;;;;;8.20;7.00;;;13.30;99.90;;;;;;5074329;28;20981;-67
2021/10/08 08:59:04;;;;;;;7.40;6.80;;;13.30;99.90;;;;;;5074313;28;20594;-67
2021/10/08 09:01:31;;;;;;;13.40;6.47;;;13.40;99.90;;;;;;5074235;28;20213;-67
2021/10/08 09:04:06;;;;;;;6.33;5.80;;;13.60;99.90;;;;;;5074015;28;20633;-67
2021/10/08 09:06:38;;;;;;;7.43;6.73;;;13.60;99.90;;;;;;5074238;28;20624;-67
2021/10/08 09:09:15;;;;;;;10.33;6.50;;;13.80;99.90;;;;;;5073872;28;20584;-67
2021/10/08 09:11:41;;;;;;;7.00;5.93;;;13.90;99.90;;;;;;5075024;28;20640;-67
2021/10/08 09:14:19;;;;;;;6.70;6.00;;;13.80;99.90;;;;;;5074006;28;20621;-67
2021/10/08 09:17:07;;;;;;;12.33;6.60;;;14.00;99.90;;;;;;5073694;28;21184;-67
2021/10/08 09:19:54;;;;;;;6.10;5.60;;;14.10;99.90;;;;;;5073770;28;21156;-67
2021/10/08 09:22:32;;;;;;;13.90;5.80;;;14.20;99.90;;;;;;5073988;28;21148;-67
2021/10/08 09:25:17;;;;;;;6.37;5.30;;;14.20;99.90;;;;;;5073698;28;21211;-67
2021/10/08 09:27:46;;;;;;;6.47;5.87;;;14.30;99.90;;;;;;5073836;28;20729;-67
2021/10/08 09:30:13;;;;;;;9.10;5.80;;;14.60;99.90;;;;;;5071874;28;20629;-67
2021/10/08 09:32:52;;;;;;;6.57;5.43;;;14.70;99.90;;;;;;5073214;28;20648;-67
2021/10/08 09:35:21;;;;;;;5.37;4.90;;;14.90;99.90;;;;;;5073818;28;20582;-67
2021/10/08 09:38:01;;;;;;;7.60;5.17;;;15.00;99.90;;;;;;5073493;28;21014;-67
2021/10/08 09:40:29;;;;;;;6.73;5.23;;;15.20;99.90;;;;;;5073397;28;20622;-67
2021/10/08 09:43:01;;;;;;;8.37;6.33;;;15.10;99.90;;;;;;5073389;28;20614;-67
2021/10/08 09:45:36;;;;;;;6.40;5.33;;;15.00;99.90;;;;;;5073600;28;20633;-66
2021/10/08 09:48:03;;;;;;;7.67;5.70;;;15.00;99.90;;;;;;5073259;28;20626;-66
2021/10/08 09:50:29;;;;;;;6.07;5.47;;;15.10;99.90;;;;;;5073517;28;20609;-66
2021/10/08 09:53:12;;;;;;;13.53;5.83;;;15.10;99.90;;;;;;5073750;28;20617;-66
2021/10/08 09:55:39;;;;;;;10.03;5.90;;;15.30;99.90;;;;;;5073400;28;20622;-66
2021/10/08 09:58:07;;;;;;;16.33;6.00;;;15.20;99.90;;;;;;5073717;28;20628;-66
2021/10/08 10:00:46;;;;;;;14.23;7.03;;;15.20;99.90;;;;;;5073437;28;20634;-65
2021/10/08 10:03:18;;;;;;;8.23;5.97;;;15.00;99.90;;;;;;5073562;28;20964;-65
2021/10/08 10:05:45;;;;;;;8.37;5.67;;;14.90;99.90;;;;;;5073306;28;20599;-65
2021/10/08 10:08:12;;;;;;;9.00;5.50;;;15.20;99.90;;;;;;5073425;28;20606;-65
2021/10/08 10:10:39;;;;;;;6.63;5.67;;;15.60;99.90;;;;;;5073199;28;20584;-65
2021/10/08 10:13:08;;;;;;;6.83;6.03;;;15.70;99.90;;;;;;5073374;28;20618;-65
2021/10/08 10:15:36;;;;;;;6.03;5.53;;;15.80;99.90;;;;;;5073597;28;20625;-65
2021/10/08 10:18:21;;;;;;;6.13;5.20;;;15.60;99.90;;;;;;5073228;28;20638;-65
2021/10/08 10:20:52;;;;;;;8.13;6.60;;;15.70;99.90;;;;;;5073464;28;20614;-65
2021/10/08 10:23:21;;;;;;;8.17;5.60;;;15.80;99.90;;;;;;5073533;28;20939;-65
2021/10/08 10:25:49;;;;;;;9.47;5.90;;;15.70;99.90;;;;;;5073082;28;20669;-65
2021/10/08 10:28:16;;;;;;;6.67;6.07;;;15.80;99.90;;;;;;5073500;28;20614;-65
2021/10/08 10:30:45;;;;;;;8.73;5.60;;;15.90;99.90;;;;;;5073074;28;20598;-65
2021/10/08 10:33:12;;;;;;;6.50;6.00;;;15.90;99.90;;;;;;5072852;28;20622;-65
2021/10/08 10:35:47;;;;;;;6.97;5.90;;;15.80;99.90;;;;;;5072736;28;20618;-65
2021/10/08 10:38:30;;;;;;;6.77;6.07;;;15.90;99.90;;;;;;5072873;28;20626;-65
2021/10/08 10:41:07;;;;;;;7.63;6.27;;;15.90;99.90;;;;;;5073154;28;20593;-65
2021/10/08 10:43:44;;;;;;;8.02;6.10;;;16.00;99.90;;;;;;5072821;28;21222;-65
2021/10/08 10:51:55;;;;;;;10.70;6.43;;;16.10;99.90;;;;;;5076511;28;20923;-66
2021/10/08 10:54:34;;;;;;;8.93;6.40;;;16.30;99.90;;;;;;5076951;28;21112;-66
2021/10/08 10:57:02;;;;;;;8.20;6.73;;;16.50;99.90;;;;;;5077112;28;20618;-66
2021/10/08 10:59:30;;;;;;;11.83;7.13;;;16.70;99.90;;;;;;5075915;28;20666;-66
2021/10/08 11:02:04;;;;;;;8.60;5.77;;;16.80;99.90;;;;;;5076379;28;20625;-67
2021/10/08 11:04:38;;;;;;;7.00;6.00;;;16.70;99.90;;;;;;5076602;28;20582;-66
2021/10/08 11:07:14;;;;;;;14.37;6.70;;;16.60;99.90;;;;;;5078338;28;20963;-66
2021/10/08 11:10:01;;;;;;;13.90;5.93;;;16.80;99.90;;;;;;5077969;28;20600;-66
2021/10/08 11:12:41;;;;;;;6.93;6.10;;;16.90;99.90;;;;;;5065175;28;21132;-66
2021/10/08 11:15:17;;;;;;;7.00;6.33;;;16.80;99.90;;;;;;5066126;28;20593;-66
2021/10/08 11:17:54;;;;;;;7.87;6.20;;;16.90;99.90;;;;;;5075521;28;20706;-66
2021/10/08 11:20:32;;;;;;;6.63;5.50;;;17.10;99.90;;;;;;5074782;28;20641;-70
2021/10/08 11:23:01;;;;;;;7.80;5.33;;;17.40;99.90;;;;;;5076180;28;20692;-67
2021/10/08 11:25:29;;;;;;;6.87;6.13;;;17.40;99.90;;;;;;5076131;28;20968;-65
2021/10/08 11:27:57;;;;;;;5.63;5.10;;;17.50;99.90;;;;;;5076154;28;20664;-65
2021/10/08 11:30:25;;;;;;;14.03;6.23;;;17.60;99.90;;;;;;5076380;28;20622;-65
2021/10/08 11:32:53;;;;;;;6.97;6.27;;;17.60;99.90;;;;;;5076192;28;20602;-65
2021/10/08 11:35:30;;;;;;;6.70;6.10;;;17.50;99.90;;;;;;5076163;28;20949;-65
2021/10/08 11:37:57;;;;;;;7.00;6.43;;;17.20;99.90;;;;;;5076111;28;20621;-65
2021/10/08 11:40:45;;;;;;;7.10;6.37;;;17.20;99.90;;;;;;5075959;28;20599;-66
2021/10/08 11:43:32;;;;;;;6.23;5.60;;;17.20;99.90;;;;;;5075755;28;20614;-66
2021/10/08 11:46:08;;;;;;;6.40;5.70;;;17.00;99.90;;;;;;5076033;28;20695;-66
2021/10/08 11:48:43;;;;;;;13.20;5.67;;;17.00;99.90;;;;;;5075658;28;20640;-66
2021/10/08 11:51:09;;;;;;;5.77;5.27;;;17.10;99.90;;;;;;5075764;28;20561;-66
2021/10/08 11:53:48;;;;;;;7.43;6.00;;;17.30;99.90;;;;;;5075588;28;20969;-66
2021/10/08 11:56:24;;;;;;;6.77;6.00;;;17.30;99.90;;;;;;5075416;28;20569;-66
2021/10/08 11:59:09;;;;;;;11.87;6.77;;;17.40;99.90;;;;;;5075639;28;20577;-66
2021/10/08 12:01:37;;;;;;;7.20;6.57;;;17.30;99.90;;;;;;5075300;28;20629;-65
2021/10/08 12:04:05;;;;;;;9.30;7.00;;;17.40;99.90;;;;;;5075303;28;20656;-65
2021/10/08 12:06:32;;;;;;;7.30;6.60;;;17.40;99.90;;;;;;5075032;28;21231;-65
2021/10/08 12:09:04;;;;;;;8.40;7.47;;;17.40;99.90;;;;;;5074835;28;20632;-66
2021/10/08 12:11:32;;;;;;;7.97;7.20;;;17.80;99.90;;;;;;5074826;28;20622;-66
2021/10/08 12:14:04;;;;;;;9.13;6.80;;;17.70;99.90;;;;;;5075094;28;20617;-66
2021/10/08 12:16:43;;;;;;;7.30;6.70;;;17.90;99.90;;;;;;5073712;28;20626;-66
2021/10/08 12:19:11;;;;;;;7.47;6.87;;;18.00;99.90;;;;;;5075068;28;20628;-66
2021/10/08 12:21:40;;;;;;;11.70;6.80;;;18.20;99.90;;;;;;5074569;28;20634;-66
2021/10/08 12:24:11;;;;;;;9.63;7.40;;;18.30;99.90;;;;;;5074914;28;20626;-66
2021/10/08 12:26:43;;;;;;;10.50;7.67;;;18.40;99.90;;;;;;5074894;28;21007;-66
2021/10/08 12:29:12;;;;;;;8.00;7.30;;;18.30;99.90;;;;;;5074805;28;20555;-66
2021/10/08 12:31:46;;;;;;;8.33;7.53;;;18.20;99.90;;;;;;5074774;28;20602;-66
2021/10/08 12:34:13;;;;;;;9.00;8.00;;;18.10;99.90;;;;;;5073425;28;20990;-67
2021/10/08 12:36:39;;;;;;;8.77;7.87;;;17.70;99.90;;;;;;5074878;28;20628;-66
2021/10/08 12:39:08;;;;;;;8.13;7.20;;;17.70;99.90;;;;;;5074872;28;20620;-67
2021/10/08 12:41:56;;;;;;;8.23;7.27;;;17.60;99.90;;;;;;5074718;28;20624;-66
2021/10/08 12:44:29;;;;;;;10.10;8.13;;;17.40;99.90;;;;;;5074823;28;20656;-66
2021/10/08 12:47:14;;;;;;;8.93;8.10;;;17.40;99.90;;;;;;5073323;28;20661;-66
2021/10/08 12:49:48;;;;;;;8.47;7.40;;;17.50;99.90;;;;;;5074659;28;20614;-66
2021/10/08 12:52:50;;;;;;;8.90;8.10;;;17.50;99.90;;;;;;5074534;28;20600;-67
2021/10/08 12:55:21;;;;;;;8.00;7.30;;;17.60;99.90;;;;;;5074322;28;21179;-67
2021/10/08 12:58:05;;;;;;;8.60;7.80;;;18.00;99.90;;;;;;5074464;28;20622;-67